Newport, Rhode Island
Current Conditions -  °F | °C
As of 10:53 PM on Friday 19 Dec 2014 (Local Time) from KUUU Reporting Station
Clear Clear  
Wind Chill: 23°   Ceiling: Unl
Heat Index: 31°   Visibility: 10mi
Dew Point: 21°   Wind: 9mph
Humidity: 67%   Direction: 360°N
Pressure: 30.11"   Gusts: NA
Location:  41.49°N, 71.31°W
Report Text: KUUU 200353Z AUTO 36008KT 10SM CLR M01/M06 A3011 RMK AO2 SLP196 T10061061
Loading
Personal Weather Stations






























Interactive Weather Map New forecast layout! Learn more

10-Day Weather Forecast

Advertisements
Track Severe Weather on mobile